sensor_id;sensor_type;location;lat;lon;timestamp;pressure;altitude;pressure_sealevel;temperature;humidity
25650;BME280;13505;45.196;5.696;2023-03-21T05:00:17;99472.97;;;7.16;83.56
25650;BME280;13505;45.196;5.696;2023-03-21T05:05:08;99467.59;;;7.21;83.17
25650;BME280;13505;45.196;5.696;2023-03-21T05:10:00;99478.59;;;7.02;83.02
25650;BME280;13505;45.196;5.696;2023-03-21T05:14:50;99466.88;;;7.16;82.38
25650;BME280;13505;45.196;5.696;2023-03-21T05:19:41;99479.34;;;7.06;83.72
25650;BME280;13505;45.196;5.696;2023-03-21T05:24:32;99481.69;;;7.17;82.94
25650;BME280;13505;45.196;5.696;2023-03-21T05:29:22;99485.09;;;7.20;82.97
25650;BME280;13505;45.196;5.696;2023-03-21T05:34:13;99495.84;;;7.11;83.20
25650;BME280;13505;45.196;5.696;2023-03-21T05:39:04;99491.53;;;7.08;82.79
25650;BME280;13505;45.196;5.696;2023-03-21T05:43:54;99497.41;;;6.83;84.10
25650;BME280;13505;45.196;5.696;2023-03-21T05:48:45;99488.22;;;7.02;83.77
25650;BME280;13505;45.196;5.696;2023-03-21T05:53:35;99498.59;;;7.06;83.66
25650;BME280;13505;45.196;5.696;2023-03-21T05:58:25;99507.34;;;7.05;83.08
25650;BME280;13505;45.196;5.696;2023-03-21T06:03:16;99503.72;;;7.11;82.75
25650;BME280;13505;45.196;5.696;2023-03-21T06:08:06;99512.91;;;7.28;81.51
25650;BME280;13505;45.196;5.696;2023-03-21T06:12:57;99515.81;;;7.17;81.32
25650;BME280;13505;45.196;5.696;2023-03-21T06:17:47;99509.53;;;7.22;82.44
25650;BME280;13505;45.196;5.696;2023-03-21T06:22:37;99512.38;;;7.15;82.74
25650;BME280;13505;45.196;5.696;2023-03-21T06:27:28;99518.00;;;6.99;83.38
25650;BME280;13505;45.196;5.696;2023-03-21T06:32:18;99509.06;;;7.08;84.09
25650;BME280;13505;45.196;5.696;2023-03-21T06:37:08;99525.72;;;7.38;83.04
25650;BME280;13505;45.196;5.696;2023-03-21T06:41:59;99530.19;;;7.35;82.61
25650;BME280;13505;45.196;5.696;2023-03-21T06:46:50;99517.16;;;7.32;83.21
25650;BME280;13505;45.196;5.696;2023-03-21T06:51:41;99525.38;;;7.51;83.69
25650;BME280;13505;45.196;5.696;2023-03-21T06:56:31;99528.88;;;7.51;83.28
25650;BME280;13505;45.196;5.696;2023-03-21T07:01:22;99525.16;;;7.90;81.44
25650;BME280;13505;45.196;5.696;2023-03-21T07:06:13;99522.91;;;8.08;80.62
25650;BME280;13505;45.196;5.696;2023-03-21T07:11:05;99520.94;;;8.15;79.78
25650;BME280;13505;45.196;5.696;2023-03-21T07:15:57;99524.88;;;8.30;79.13
25650;BME280;13505;45.196;5.696;2023-03-21T07:20:48;99522.25;;;8.30;77.29
25650;BME280;13505;45.196;5.696;2023-03-21T07:25:40;99520.16;;;8.11;77.31
25650;BME280;13505;45.196;5.696;2023-03-21T07:30:30;99512.59;;;8.59;74.81
25650;BME280;13505;45.196;5.696;2023-03-21T07:35:20;99513.41;;;8.88;73.72
25650;BME280;13505;45.196;5.696;2023-03-21T07:40:11;99506.94;;;9.24;72.26
25650;BME280;13505;45.196;5.696;2023-03-21T07:45:03;99503.78;;;9.14;72.29
25650;BME280;13505;45.196;5.696;2023-03-21T07:49:54;99507.69;;;9.76;71.53
25650;BME280;13505;45.196;5.696;2023-03-21T07:54:44;99503.88;;;10.30;70.63
25650;BME280;13505;45.196;5.696;2023-03-21T07:59:35;99507.00;;;10.41;69.11
25650;BME280;13505;45.196;5.696;2023-03-21T08:04:25;99496.50;;;10.62;69.05
25650;BME280;13505;45.196;5.696;2023-03-21T08:09:17;99491.53;;;10.97;67.61
25650;BME280;13505;45.196;5.696;2023-03-21T08:14:07;99501.78;;;10.62;68.53
25650;BME280;13505;45.196;5.696;2023-03-21T08:18:57;99502.72;;;10.37;70.98
25650;BME280;13505;45.196;5.696;2023-03-21T08:23:48;99499.84;;;10.88;70.69
25650;BME280;13505;45.196;5.696;2023-03-21T08:28:38;99496.44;;;11.47;69.39
25650;BME280;13505;45.196;5.696;2023-03-21T08:33:28;99493.75;;;11.48;69.06
25650;BME280;13505;45.196;5.696;2023-03-21T08:38:19;99500.91;;;11.84;63.22
25650;BME280;13505;45.196;5.696;2023-03-21T08:43:10;99494.94;;;12.19;62.07
25650;BME280;13505;45.196;5.696;2023-03-21T08:48:00;99489.16;;;11.92;65.78
25650;BME280;13505;45.196;5.696;2023-03-21T08:52:51;99486.69;;;12.08;66.48
25650;BME280;13505;45.196;5.696;2023-03-21T08:57:42;99492.31;;;12.19;66.00
25650;BME280;13505;45.196;5.696;2023-03-21T09:02:33;99489.47;;;11.84;66.88
25650;BME280;13505;45.196;5.696;2023-03-21T09:07:24;99487.22;;;12.14;65.89
25650;BME280;13505;45.196;5.696;2023-03-21T09:12:15;99478.88;;;12.05;64.43
25650;BME280;13505;45.196;5.696;2023-03-21T09:17:06;99484.28;;;12.57;62.99
25650;BME280;13505;45.196;5.696;2023-03-21T09:21:56;99477.69;;;12.84;61.06
25650;BME280;13505;45.196;5.696;2023-03-21T09:26:46;99473.56;;;12.78;59.86
25650;BME280;13505;45.196;5.696;2023-03-21T09:31:39;99474.19;;;12.83;59.38
25650;BME280;13505;45.196;5.696;2023-03-21T09:36:32;99462.69;;;13.36;59.25
25650;BME280;13505;45.196;5.696;2023-03-21T09:47:13;99464.75;;;13.31;58.99
25650;BME280;13505;45.196;5.696;2023-03-21T09:52:03;99458.28;;;13.19;58.20
25650;BME280;13505;45.196;5.696;2023-03-21T09:57:03;99452.69;;;13.59;57.67
25650;BME280;13505;45.196;5.696;2023-03-21T10:02:01;99447.06;;;14.13;57.13
25650;BME280;13505;45.196;5.696;2023-03-21T10:06:57;99433.53;;;14.34;55.49
25650;BME280;13505;45.196;5.696;2023-03-21T10:12:02;99431.66;;;14.67;54.96
25650;BME280;13505;45.196;5.696;2023-03-21T10:17:01;99412.88;;;15.29;53.34
25650;BME280;13505;45.196;5.696;2023-03-21T10:21:54;99412.00;;;14.69;54.03
25650;BME280;13505;45.196;5.696;2023-03-21T10:26:45;99408.22;;;14.89;54.18
25650;BME280;13505;45.196;5.696;2023-03-21T10:31:36;99398.00;;;15.41;52.63
25650;BME280;13505;45.196;5.696;2023-03-21T10:36:29;99399.97;;;15.52;52.46
25650;BME280;13505;45.196;5.696;2023-03-21T10:41:20;99392.88;;;15.24;52.93
25650;BME280;13505;45.196;5.696;2023-03-21T10:51:05;99379.41;;;14.98;51.50
25650;BME280;13505;45.196;5.696;2023-03-21T10:55:59;99381.38;;;14.94;52.17
25650;BME280;13505;45.196;5.696;2023-03-21T11:00:54;99379.47;;;15.40;50.62
25650;BME280;13505;45.196;5.696;2023-03-21T11:05:47;99369.16;;;15.92;51.24
25650;BME280;13505;45.196;5.696;2023-03-21T11:10:53;99362.06;;;16.45;50.07
25650;BME280;13505;45.196;5.696;2023-03-21T11:16:00;99347.81;;;16.59;48.04
25650;BME280;13505;45.196;5.696;2023-03-21T11:20:55;99351.75;;;16.80;47.90
25650;BME280;13505;45.196;5.696;2023-03-21T11:25:48;99354.56;;;16.78;48.29
25650;BME280;13505;45.196;5.696;2023-03-21T11:35:40;99337.50;;;16.94;45.22
25650;BME280;13505;45.196;5.696;2023-03-21T11:40:32;99334.06;;;17.18;44.59
25650;BME280;13505;45.196;5.696;2023-03-21T11:45:34;99314.19;;;18.21;43.47
25650;BME280;13505;45.196;5.696;2023-03-21T11:50:36;99302.09;;;18.39;43.89
25650;BME280;13505;45.196;5.696;2023-03-21T11:55:42;99295.50;;;18.91;40.87
25650;BME280;13505;45.196;5.696;2023-03-21T12:05:34;99270.97;;;19.20;41.01
25650;BME280;13505;45.196;5.696;2023-03-21T12:11:33;99263.03;;;19.41;40.97
25650;BME280;13505;45.196;5.696;2023-03-21T12:16:34;99248.16;;;19.48;42.32
25650;BME280;13505;45.196;5.696;2023-03-21T12:22:04;99244.19;;;19.75;42.03
25650;BME280;13505;45.196;5.696;2023-03-21T12:37:40;99192.75;;;20.04;39.00
25650;BME280;13505;45.196;5.696;2023-03-21T12:47:33;99178.81;;;20.32;39.37
25650;BME280;13505;45.196;5.696;2023-03-21T12:52:29;99174.28;;;20.63;35.85
25650;BME280;13505;45.196;5.696;2023-03-21T12:57:25;99161.63;;;20.75;36.33
25650;BME280;13505;45.196;5.696;2023-03-21T13:02:28;99161.34;;;20.78;35.92
25650;BME280;13505;45.196;5.696;2023-03-21T13:07:21;99159.88;;;20.96;35.29
25650;BME280;13505;45.196;5.696;2023-03-21T13:17:43;99155.13;;;21.19;33.77
25650;BME280;13505;45.196;5.696;2023-03-21T13:22:34;99133.25;;;21.14;34.97
25650;BME280;13505;45.196;5.696;2023-03-21T13:27:32;99122.22;;;21.27;35.13
25650;BME280;13505;45.196;5.696;2023-03-21T13:32:42;99135.78;;;21.35;35.37
25650;BME280;13505;45.196;5.696;2023-03-21T13:37:34;99127.75;;;21.25;35.05
25650;BME280;13505;45.196;5.696;2023-03-21T13:42:32;99116.28;;;21.23;36.29
25650;BME280;13505;45.196;5.696;2023-03-21T13:47:54;99112.91;;;21.21;35.76
25650;BME280;13505;45.196;5.696;2023-03-21T13:57:51;99116.56;;;21.00;36.41
25650;BME280;13505;45.196;5.696;2023-03-21T14:03:06;99119.25;;;21.00;36.51
25650;BME280;13505;45.196;5.696;2023-03-21T14:08:00;99108.22;;;20.84;36.39
25650;BME280;13505;45.196;5.696;2023-03-21T14:12:52;99102.72;;;20.85;37.01
25650;BME280;13505;45.196;5.696;2023-03-21T14:17:55;99104.81;;;20.82;37.27
25650;BME280;13505;45.196;5.696;2023-03-21T14:22:47;99107.75;;;20.78;36.41
25650;BME280;13505;45.196;5.696;2023-03-21T14:27:42;99101.41;;;20.80;36.36
25650;BME280;13505;45.196;5.696;2023-03-21T14:32:34;99105.19;;;20.67;37.60
25650;BME280;13505;45.196;5.696;2023-03-21T14:37:37;99096.31;;;20.76;37.02
25650;BME280;13505;45.196;5.696;2023-03-21T14:42:33;99105.94;;;20.79;36.90
25650;BME280;13505;45.196;5.696;2023-03-21T14:47:26;99106.50;;;20.32;37.79
25650;BME280;13505;45.196;5.696;2023-03-21T14:52:31;99102.72;;;20.44;37.76
25650;BME280;13505;45.196;5.696;2023-03-21T14:57:24;99080.63;;;20.52;37.80
25650;BME280;13505;45.196;5.696;2023-03-21T15:02:38;99083.03;;;20.14;36.77
25650;BME280;13505;45.196;5.696;2023-03-21T15:07:32;99091.53;;;20.29;38.71
25650;BME280;13505;45.196;5.696;2023-03-21T15:12:22;99085.66;;;20.04;39.49
25650;BME280;13505;45.196;5.696;2023-03-21T15:17:13;99080.75;;;20.10;39.13
25650;BME280;13505;45.196;5.696;2023-03-21T15:22:17;99077.38;;;19.86;38.92
25650;BME280;13505;45.196;5.696;2023-03-21T15:27:15;99081.88;;;19.64;39.17
25650;BME280;13505;45.196;5.696;2023-03-21T15:32:12;99086.75;;;19.80;39.66
25650;BME280;13505;45.196;5.696;2023-03-21T15:37:07;99080.50;;;19.91;39.42
25650;BME280;13505;45.196;5.696;2023-03-21T15:42:18;99083.84;;;19.84;40.17
25650;BME280;13505;45.196;5.696;2023-03-21T15:47:12;99082.22;;;19.71;40.81
25650;BME280;13505;45.196;5.696;2023-03-21T15:56:55;99086.44;;;19.31;41.61
25650;BME280;13505;45.196;5.696;2023-03-21T16:01:47;99076.28;;;19.25;42.23
25650;BME280;13505;45.196;5.696;2023-03-21T16:06:50;99076.41;;;19.23;41.95
25650;BME280;13505;45.196;5.696;2023-03-21T16:16:42;99075.41;;;18.92;43.67
25650;BME280;13505;45.196;5.696;2023-03-21T16:21:33;99071.53;;;18.85;43.94
25650;BME280;13505;45.196;5.696;2023-03-21T16:26:29;99085.31;;;18.68;44.45
25650;BME280;13505;45.196;5.696;2023-03-21T16:31:23;99084.97;;;18.62;44.73
25650;BME280;13505;45.196;5.696;2023-03-21T16:41:09;99094.44;;;18.43;46.06
25650;BME280;13505;45.196;5.696;2023-03-21T16:46:00;99104.63;;;18.26;46.36
25650;BME280;13505;45.196;5.696;2023-03-21T16:50:50;99105.25;;;18.19;46.48
25650;BME280;13505;45.196;5.696;2023-03-21T16:55:41;99104.13;;;17.98;47.52
25650;BME280;13505;45.196;5.696;2023-03-21T17:00:32;99108.25;;;17.91;47.58
25650;BME280;13505;45.196;5.696;2023-03-21T17:05:27;99113.94;;;17.86;46.67
25650;BME280;13505;45.196;5.696;2023-03-21T17:10:25;99114.88;;;17.74;47.71
25650;BME280;13505;45.196;5.696;2023-03-21T17:15:16;99121.16;;;17.62;47.56
25650;BME280;13505;45.196;5.696;2023-03-21T17:25:08;99129.78;;;17.29;49.04
25650;BME280;13505;45.196;5.696;2023-03-21T17:29:58;99128.28;;;17.25;48.41
25650;BME280;13505;45.196;5.696;2023-03-21T17:34:48;99132.78;;;17.25;47.77
25650;BME280;13505;45.196;5.696;2023-03-21T17:39:42;99134.00;;;17.21;47.69
25650;BME280;13505;45.196;5.696;2023-03-21T17:44:34;99135.75;;;17.09;48.94
25650;BME280;13505;45.196;5.696;2023-03-21T17:49:24;99127.13;;;17.05;48.26
25650;BME280;13505;45.196;5.696;2023-03-21T17:54:15;99136.38;;;16.99;48.40
25650;BME280;13505;45.196;5.696;2023-03-21T17:59:07;99139.81;;;16.88;48.64
25650;BME280;13505;45.196;5.696;2023-03-21T18:04:00;99140.50;;;16.79;48.79
25650;BME280;13505;45.196;5.696;2023-03-21T18:08:54;99152.16;;;16.65;48.88
25650;BME280;13505;45.196;5.696;2023-03-21T18:13:44;99152.28;;;16.51;50.03
25650;BME280;13505;45.196;5.696;2023-03-21T18:18:35;99150.06;;;16.31;51.32
25650;BME280;13505;45.196;5.696;2023-03-21T18:23:25;99147.53;;;16.17;51.80
25650;BME280;13505;45.196;5.696;2023-03-21T18:28:16;99157.31;;;16.03;52.08
25650;BME280;13505;45.196;5.696;2023-03-21T18:33:06;99155.94;;;15.98;51.57
25650;BME280;13505;45.196;5.696;2023-03-21T18:37:56;99153.91;;;15.88;51.74
25650;BME280;13505;45.196;5.696;2023-03-21T18:42:49;99153.66;;;15.79;51.55
25650;BME280;13505;45.196;5.696;2023-03-21T18:47:39;99164.59;;;15.74;50.98
25650;BME280;13505;45.196;5.696;2023-03-21T18:52:30;99174.28;;;15.62;51.17
25650;BME280;13505;45.196;5.696;2023-03-21T18:57:21;99175.41;;;15.58;51.28
25650;BME280;13505;45.196;5.696;2023-03-21T19:02:13;99187.56;;;15.62;51.08
25650;BME280;13505;45.196;5.696;2023-03-21T19:07:03;99194.84;;;15.86;50.87
25650;BME280;13505;45.196;5.696;2023-03-21T19:11:54;99192.13;;;16.00;50.78
25650;BME280;13505;45.196;5.696;2023-03-21T19:16:46;99185.88;;;15.74;51.59
25650;BME280;13505;45.196;5.696;2023-03-21T19:21:36;99190.28;;;15.47;52.24
25650;BME280;13505;45.196;5.696;2023-03-21T19:26:27;99185.41;;;15.27;53.11
25650;BME280;13505;45.196;5.696;2023-03-21T19:31:17;99182.72;;;15.14;52.99
25650;BME280;13505;45.196;5.696;2023-03-21T19:36:09;99176.78;;;14.96;53.18
25650;BME280;13505;45.196;5.696;2023-03-21T19:41:01;99182.88;;;14.83;53.03
25650;BME280;13505;45.196;5.696;2023-03-21T19:45:52;99175.66;;;14.71;54.50
25650;BME280;13505;45.196;5.696;2023-03-21T19:50:42;99177.94;;;14.62;53.69
25650;BME280;13505;45.196;5.696;2023-03-21T19:55:33;99183.25;;;14.48;54.39
25650;BME280;13505;45.196;5.696;2023-03-21T20:00:23;99194.53;;;14.37;52.96
25650;BME280;13505;45.196;5.696;2023-03-21T20:05:15;99182.22;;;14.21;53.65
25650;BME280;13505;45.196;5.696;2023-03-21T20:10:14;99174.81;;;13.98;55.73
25650;BME280;13505;45.196;5.696;2023-03-21T20:15:05;99185.09;;;13.88;55.62
25650;BME280;13505;45.196;5.696;2023-03-21T20:19:55;99182.91;;;13.80;55.28
25650;BME280;13505;45.196;5.696;2023-03-21T20:24:49;99184.47;;;13.68;55.41
25650;BME280;13505;45.196;5.696;2023-03-21T20:29:40;99181.59;;;13.57;55.79
25650;BME280;13505;45.196;5.696;2023-03-21T20:34:31;99175.06;;;13.48;55.53
25650;BME280;13505;45.196;5.696;2023-03-21T20:39:22;99191.19;;;13.43;54.83
25650;BME280;13505;45.196;5.696;2023-03-21T20:44:12;99190.00;;;13.33;55.09
25650;BME280;13505;45.196;5.696;2023-03-21T20:49:03;99206.59;;;13.20;55.37
25650;BME280;13505;45.196;5.696;2023-03-21T20:53:55;99200.19;;;13.08;56.44
25650;BME280;13505;45.196;5.696;2023-03-21T20:58:46;99196.53;;;12.95;56.94
25650;BME280;13505;45.196;5.696;2023-03-21T21:03:36;99208.63;;;12.83;57.09
25650;BME280;13505;45.196;5.696;2023-03-21T21:08:30;99205.03;;;12.84;56.44
25650;BME280;13505;45.196;5.696;2023-03-21T21:13:21;99204.63;;;12.76;56.48
25650;BME280;13505;45.196;5.696;2023-03-21T21:18:11;99208.13;;;12.76;56.21
25650;BME280;13505;45.196;5.696;2023-03-21T21:23:02;99212.78;;;12.55;56.92
25650;BME280;13505;45.196;5.696;2023-03-21T21:27:53;99209.00;;;12.43;57.65
25650;BME280;13505;45.196;5.696;2023-03-21T21:32:43;99209.72;;;12.29;58.98
25650;BME280;13505;45.196;5.696;2023-03-21T21:37:34;99217.91;;;12.24;59.26
25650;BME280;13505;45.196;5.696;2023-03-21T21:42:25;99219.00;;;12.20;59.50
25650;BME280;13505;45.196;5.696;2023-03-21T21:47:16;99213.72;;;12.03;60.43
25650;BME280;13505;45.196;5.696;2023-03-21T21:52:06;99214.09;;;11.95;60.13
25650;BME280;13505;45.196;5.696;2023-03-21T21:56:57;99214.09;;;11.95;59.80
25650;BME280;13505;45.196;5.696;2023-03-21T22:01:48;99228.00;;;11.81;60.76
25650;BME280;13505;45.196;5.696;2023-03-21T22:06:42;99218.78;;;11.90;63.02
25650;BME280;13505;45.196;5.696;2023-03-21T22:11:33;99216.13;;;11.90;61.09
25650;BME280;13505;45.196;5.696;2023-03-21T22:16:23;99214.00;;;11.79;61.79
25650;BME280;13505;45.196;5.696;2023-03-21T22:21:13;99209.34;;;11.66;62.25
25650;BME280;13505;45.196;5.696;2023-03-21T22:26:04;99217.25;;;11.49;62.84
25650;BME280;13505;45.196;5.696;2023-03-21T22:30:55;99220.09;;;11.44;63.06
25650;BME280;13505;45.196;5.696;2023-03-21T22:35:45;99223.34;;;11.31;64.39
25650;BME280;13505;45.196;5.696;2023-03-21T22:40:35;99220.78;;;11.30;64.33
25650;BME280;13505;45.196;5.696;2023-03-21T22:45:26;99219.50;;;11.20;64.68
25650;BME280;13505;45.196;5.696;2023-03-21T22:50:16;99228.72;;;11.11;64.88
25650;BME280;13505;45.196;5.696;2023-03-21T22:55:07;99233.66;;;10.99;65.33
25650;BME280;13505;45.196;5.696;2023-03-21T22:59:59;99234.75;;;10.95;65.40
